sensor_id;sensor_type;location;lat;lon;timestamp;P1;durP1;ratioP1;P2;durP2;ratioP2
79126;SDS011;68528;48.814;8.904;2023-05-02T00:19:29;3.83;;;2.55;;
79126;SDS011;68528;48.814;8.904;2023-05-02T00:21:55;5.82;;;3.22;;
79126;SDS011;68528;48.814;8.904;2023-05-02T00:24:20;6.15;;;3.83;;
79126;SDS011;68528;48.814;8.904;2023-05-02T00:26:46;4.25;;;3.10;;
79126;SDS011;68528;48.814;8.904;2023-05-02T00:29:11;3.92;;;2.92;;
79126;SDS011;68528;48.814;8.904;2023-05-02T00:37:44;4.35;;;3.40;;
79126;SDS011;68528;48.814;8.904;2023-05-02T00:40:10;5.10;;;3.25;;
79126;SDS011;68528;48.814;8.904;2023-05-02T00:42:35;3.50;;;2.60;;
79126;SDS011;68528;48.814;8.904;2023-05-02T00:45:04;3.63;;;2.97;;
79126;SDS011;68528;48.814;8.904;2023-05-02T00:47:30;3.25;;;2.88;;
79126;SDS011;68528;48.814;8.904;2023-05-02T00:53:26;6.80;;;3.15;;
79126;SDS011;68528;48.814;8.904;2023-05-02T00:55:52;4.28;;;3.20;;
79126;SDS011;68528;48.814;8.904;2023-05-02T00:58:18;6.57;;;3.60;;
79126;SDS011;68528;48.814;8.904;2023-05-02T01:00:48;6.28;;;3.85;;
79126;SDS011;68528;48.814;8.904;2023-05-02T01:03:20;5.50;;;3.67;;
79126;SDS011;68528;48.814;8.904;2023-05-02T01:12:30;5.88;;;3.88;;
79126;SDS011;68528;48.814;8.904;2023-05-02T01:15:04;5.78;;;4.63;;
79126;SDS011;68528;48.814;8.904;2023-05-02T01:17:43;4.53;;;3.92;;
79126;SDS011;68528;48.814;8.904;2023-05-02T01:20:13;6.30;;;4.03;;
79126;SDS011;68528;48.814;8.904;2023-05-02T01:22:55;4.40;;;3.58;;
79126;SDS011;68528;48.814;8.904;2023-05-02T01:32:24;5.35;;;3.92;;
79126;SDS011;68528;48.814;8.904;2023-05-02T01:34:57;4.82;;;3.63;;
79126;SDS011;68528;48.814;8.904;2023-05-02T01:37:25;6.20;;;4.05;;
79126;SDS011;68528;48.814;8.904;2023-05-02T01:40:00;4.78;;;3.35;;
79126;SDS011;68528;48.814;8.904;2023-05-02T01:42:29;5.10;;;3.63;;
79126;SDS011;68528;48.814;8.904;2023-05-02T01:51:46;6.03;;;4.40;;
79126;SDS011;68528;48.814;8.904;2023-05-02T01:54:18;6.00;;;3.90;;
79126;SDS011;68528;48.814;8.904;2023-05-02T01:56:54;6.75;;;4.00;;
79126;SDS011;68528;48.814;8.904;2023-05-02T01:59:33;5.05;;;3.65;;
79126;SDS011;68528;48.814;8.904;2023-05-02T02:09:09;6.85;;;4.15;;
79126;SDS011;68528;48.814;8.904;2023-05-02T02:11:36;5.30;;;3.85;;
79126;SDS011;68528;48.814;8.904;2023-05-02T02:14:37;5.28;;;4.20;;
79126;SDS011;68528;48.814;8.904;2023-05-02T02:17:12;5.95;;;4.00;;
79126;SDS011;68528;48.814;8.904;2023-05-02T02:26:28;5.35;;;4.10;;
79126;SDS011;68528;48.814;8.904;2023-05-02T02:28:57;5.25;;;4.22;;
79126;SDS011;68528;48.814;8.904;2023-05-02T02:31:33;4.95;;;3.95;;
79126;SDS011;68528;48.814;8.904;2023-05-02T02:34:00;7.05;;;4.28;;
79126;SDS011;68528;48.814;8.904;2023-05-02T02:36:35;6.32;;;4.30;;
79126;SDS011;68528;48.814;8.904;2023-05-02T02:45:34;8.10;;;4.82;;
79126;SDS011;68528;48.814;8.904;2023-05-02T02:51:12;7.65;;;5.07;;
79126;SDS011;68528;48.814;8.904;2023-05-02T02:53:52;5.72;;;4.20;;
79126;SDS011;68528;48.814;8.904;2023-05-02T02:56:27;6.50;;;3.97;;
79126;SDS011;68528;48.814;8.904;2023-05-02T03:03:08;5.63;;;4.35;;
79126;SDS011;68528;48.814;8.904;2023-05-02T03:05:45;6.45;;;4.63;;
79126;SDS011;68528;48.814;8.904;2023-05-02T03:08:11;6.07;;;4.32;;
79126;SDS011;68528;48.814;8.904;2023-05-02T03:10:40;6.30;;;4.53;;
79126;SDS011;68528;48.814;8.904;2023-05-02T03:13:13;6.90;;;4.45;;
79126;SDS011;68528;48.814;8.904;2023-05-02T03:19:00;5.88;;;4.38;;
79126;SDS011;68528;48.814;8.904;2023-05-02T03:21:27;7.18;;;5.07;;
79126;SDS011;68528;48.814;8.904;2023-05-02T03:23:59;6.80;;;5.32;;
79126;SDS011;68528;48.814;8.904;2023-05-02T03:26:30;8.10;;;5.45;;
79126;SDS011;68528;48.814;8.904;2023-05-02T03:28:58;7.78;;;5.00;;
79126;SDS011;68528;48.814;8.904;2023-05-02T03:31:26;7.88;;;4.80;;
79126;SDS011;68528;48.814;8.904;2023-05-02T03:41:04;6.00;;;4.60;;
79126;SDS011;68528;48.814;8.904;2023-05-02T03:43:33;7.93;;;5.18;;
79126;SDS011;68528;48.814;8.904;2023-05-02T03:46:18;5.93;;;5.15;;
79126;SDS011;68528;48.814;8.904;2023-05-02T03:48:44;10.50;;;5.80;;
79126;SDS011;68528;48.814;8.904;2023-05-02T03:51:10;6.65;;;5.07;;
79126;SDS011;68528;48.814;8.904;2023-05-02T03:59:59;8.80;;;6.18;;
79126;SDS011;68528;48.814;8.904;2023-05-02T04:02:29;6.85;;;5.22;;
79126;SDS011;68528;48.814;8.904;2023-05-02T04:04:55;7.35;;;5.28;;
79126;SDS011;68528;48.814;8.904;2023-05-02T04:07:23;8.02;;;5.82;;
79126;SDS011;68528;48.814;8.904;2023-05-02T04:09:58;7.22;;;5.05;;
79126;SDS011;68528;48.814;8.904;2023-05-02T04:16:00;6.97;;;5.45;;
79126;SDS011;68528;48.814;8.904;2023-05-02T04:18:34;8.60;;;5.53;;
79126;SDS011;68528;48.814;8.904;2023-05-02T04:23:35;5.20;;;4.40;;
79126;SDS011;68528;48.814;8.904;2023-05-02T04:26:11;6.85;;;5.22;;
79126;SDS011;68528;48.814;8.904;2023-05-02T04:55:20;6.25;;;5.32;;
79126;SDS011;68528;48.814;8.904;2023-05-02T04:58:11;6.95;;;5.13;;
79126;SDS011;68528;48.814;8.904;2023-05-02T05:00:48;7.60;;;4.93;;
79126;SDS011;68528;48.814;8.904;2023-05-02T05:03:17;7.32;;;5.50;;
79126;SDS011;68528;48.814;8.904;2023-05-02T05:19:35;10.38;;;6.63;;
79126;SDS011;68528;48.814;8.904;2023-05-02T05:22:08;8.52;;;5.78;;
79126;SDS011;68528;48.814;8.904;2023-05-02T05:31:08;9.85;;;5.60;;
79126;SDS011;68528;48.814;8.904;2023-05-02T05:33:44;9.02;;;6.57;;
79126;SDS011;68528;48.814;8.904;2023-05-02T05:36:15;9.15;;;6.65;;
79126;SDS011;68528;48.814;8.904;2023-05-02T05:38:46;11.95;;;7.10;;
79126;SDS011;68528;48.814;8.904;2023-05-02T05:41:12;10.32;;;7.80;;
79126;SDS011;68528;48.814;8.904;2023-05-02T05:50:04;10.90;;;7.40;;
79126;SDS011;68528;48.814;8.904;2023-05-02T05:52:30;10.40;;;6.95;;
79126;SDS011;68528;48.814;8.904;2023-05-02T05:55:06;11.02;;;7.45;;
79126;SDS011;68528;48.814;8.904;2023-05-02T05:57:31;11.73;;;7.15;;
79126;SDS011;68528;48.814;8.904;2023-05-02T06:00:02;11.45;;;7.90;;
79126;SDS011;68528;48.814;8.904;2023-05-02T06:02:35;11.25;;;8.90;;
79126;SDS011;68528;48.814;8.904;2023-05-02T06:05:01;12.38;;;8.63;;
79126;SDS011;68528;48.814;8.904;2023-05-02T06:07:35;12.77;;;8.63;;
79126;SDS011;68528;48.814;8.904;2023-05-02T06:10:04;11.55;;;7.80;;
79126;SDS011;68528;48.814;8.904;2023-05-02T06:15:44;13.43;;;8.77;;
79126;SDS011;68528;48.814;8.904;2023-05-02T06:18:12;12.43;;;9.10;;
79126;SDS011;68528;48.814;8.904;2023-05-02T06:20:42;12.75;;;9.00;;
79126;SDS011;68528;48.814;8.904;2023-05-02T06:23:14;14.93;;;10.07;;
79126;SDS011;68528;48.814;8.904;2023-05-02T06:25:44;14.77;;;11.38;;
79126;SDS011;68528;48.814;8.904;2023-05-02T06:28:09;15.27;;;10.65;;
79126;SDS011;68528;48.814;8.904;2023-05-02T06:30:35;16.92;;;11.07;;
79126;SDS011;68528;48.814;8.904;2023-05-02T06:33:02;15.80;;;10.65;;
79126;SDS011;68528;48.814;8.904;2023-05-02T06:35:28;15.93;;;10.50;;
79126;SDS011;68528;48.814;8.904;2023-05-02T06:38:06;19.35;;;12.50;;
79126;SDS011;68528;48.814;8.904;2023-05-02T06:40:38;17.30;;;11.23;;
79126;SDS011;68528;48.814;8.904;2023-05-02T06:46:53;18.13;;;12.50;;
79126;SDS011;68528;48.814;8.904;2023-05-02T06:49:22;18.60;;;12.63;;
79126;SDS011;68528;48.814;8.904;2023-05-02T06:54:36;22.48;;;12.85;;
79126;SDS011;68528;48.814;8.904;2023-05-02T06:57:02;20.90;;;12.70;;
79126;SDS011;68528;48.814;8.904;2023-05-02T07:02:56;19.25;;;12.85;;
79126;SDS011;68528;48.814;8.904;2023-05-02T07:05:58;21.20;;;12.40;;
79126;SDS011;68528;48.814;8.904;2023-05-02T07:08:29;22.75;;;14.07;;
79126;SDS011;68528;48.814;8.904;2023-05-02T07:11:11;22.48;;;13.55;;
79126;SDS011;68528;48.814;8.904;2023-05-02T07:13:37;23.08;;;15.18;;
79126;SDS011;68528;48.814;8.904;2023-05-02T07:16:08;23.25;;;15.27;;
79126;SDS011;68528;48.814;8.904;2023-05-02T07:19:06;20.65;;;14.15;;
79126;SDS011;68528;48.814;8.904;2023-05-02T07:21:31;22.02;;;14.20;;
79126;SDS011;68528;48.814;8.904;2023-05-02T07:23:57;25.17;;;16.70;;
79126;SDS011;68528;48.814;8.904;2023-05-02T07:26:26;23.98;;;14.65;;
79126;SDS011;68528;48.814;8.904;2023-05-02T07:28:54;24.70;;;15.65;;
79126;SDS011;68528;48.814;8.904;2023-05-02T07:31:19;26.73;;;16.25;;
79126;SDS011;68528;48.814;8.904;2023-05-02T07:33:45;25.88;;;16.00;;
79126;SDS011;68528;48.814;8.904;2023-05-02T07:36:35;29.48;;;17.38;;
79126;SDS011;68528;48.814;8.904;2023-05-02T07:40:01;29.38;;;18.70;;
79126;SDS011;68528;48.814;8.904;2023-05-02T07:42:50;27.08;;;17.27;;
79126;SDS011;68528;48.814;8.904;2023-05-02T07:45:16;32.97;;;20.95;;
79126;SDS011;68528;48.814;8.904;2023-05-02T07:53:32;32.50;;;20.65;;
79126;SDS011;68528;48.814;8.904;2023-05-02T07:56:00;35.05;;;19.88;;
79126;SDS011;68528;48.814;8.904;2023-05-02T07:58:31;34.00;;;21.08;;
79126;SDS011;68528;48.814;8.904;2023-05-02T08:00:56;36.75;;;21.10;;
79126;SDS011;68528;48.814;8.904;2023-05-02T08:03:25;34.17;;;20.38;;
79126;SDS011;68528;48.814;8.904;2023-05-02T08:05:52;33.55;;;20.02;;
79126;SDS011;68528;48.814;8.904;2023-05-02T08:08:17;33.95;;;20.38;;
79126;SDS011;68528;48.814;8.904;2023-05-02T08:10:43;30.35;;;18.77;;
79126;SDS011;68528;48.814;8.904;2023-05-02T08:13:15;32.25;;;19.00;;
79126;SDS011;68528;48.814;8.904;2023-05-02T08:15:40;30.85;;;18.80;;
79126;SDS011;68528;48.814;8.904;2023-05-02T08:18:06;33.50;;;20.42;;
79126;SDS011;68528;48.814;8.904;2023-05-02T08:20:32;32.45;;;19.05;;
79126;SDS011;68528;48.814;8.904;2023-05-02T08:22:57;33.90;;;19.02;;
79126;SDS011;68528;48.814;8.904;2023-05-02T08:25:23;33.00;;;19.60;;
79126;SDS011;68528;48.814;8.904;2023-05-02T08:27:48;32.85;;;20.40;;
79126;SDS011;68528;48.814;8.904;2023-05-02T08:30:15;34.05;;;20.30;;
79126;SDS011;68528;48.814;8.904;2023-05-02T08:32:40;33.78;;;20.85;;
79126;SDS011;68528;48.814;8.904;2023-05-02T08:35:06;31.50;;;19.70;;
79126;SDS011;68528;48.814;8.904;2023-05-02T08:37:31;30.80;;;19.15;;
79126;SDS011;68528;48.814;8.904;2023-05-02T08:39:57;35.13;;;21.85;;
79126;SDS011;68528;48.814;8.904;2023-05-02T08:42:22;33.33;;;21.92;;
79126;SDS011;68528;48.814;8.904;2023-05-02T08:44:50;36.60;;;22.38;;
79126;SDS011;68528;48.814;8.904;2023-05-02T08:53:39;34.70;;;20.63;;
79126;SDS011;68528;48.814;8.904;2023-05-02T08:56:13;30.80;;;19.75;;
79126;SDS011;68528;48.814;8.904;2023-05-02T09:01:37;27.25;;;19.02;;
79126;SDS011;68528;48.814;8.904;2023-05-02T09:22:24;22.60;;;14.18;;
79126;SDS011;68528;48.814;8.904;2023-05-02T09:24:53;17.90;;;12.50;;
79126;SDS011;68528;48.814;8.904;2023-05-02T09:27:20;21.80;;;12.43;;
79126;SDS011;68528;48.814;8.904;2023-05-02T09:29:46;21.20;;;13.98;;
79126;SDS011;68528;48.814;8.904;2023-05-02T09:32:11;21.88;;;15.10;;
79126;SDS011;68528;48.814;8.904;2023-05-02T09:34:38;22.67;;;15.35;;
79126;SDS011;68528;48.814;8.904;2023-05-02T09:37:03;21.35;;;14.40;;
79126;SDS011;68528;48.814;8.904;2023-05-02T09:39:29;20.73;;;14.27;;
79126;SDS011;68528;48.814;8.904;2023-05-02T09:41:56;19.60;;;12.52;;
79126;SDS011;68528;48.814;8.904;2023-05-02T09:44:23;18.05;;;11.93;;
79126;SDS011;68528;48.814;8.904;2023-05-02T09:46:55;18.30;;;12.65;;
79126;SDS011;68528;48.814;8.904;2023-05-02T09:52:16;19.10;;;11.98;;
79126;SDS011;68528;48.814;8.904;2023-05-02T09:55:37;21.20;;;12.73;;
79126;SDS011;68528;48.814;8.904;2023-05-02T09:58:02;20.83;;;13.85;;
79126;SDS011;68528;48.814;8.904;2023-05-02T10:03:53;22.45;;;15.27;;
79126;SDS011;68528;48.814;8.904;2023-05-02T10:09:30;19.00;;;13.77;;
79126;SDS011;68528;48.814;8.904;2023-05-02T10:12:00;21.30;;;14.50;;
79126;SDS011;68528;48.814;8.904;2023-05-02T10:14:34;18.60;;;14.23;;
79126;SDS011;68528;48.814;8.904;2023-05-02T10:17:04;18.92;;;14.00;;
79126;SDS011;68528;48.814;8.904;2023-05-02T10:22:25;19.40;;;13.30;;
79126;SDS011;68528;48.814;8.904;2023-05-02T10:24:52;20.80;;;12.48;;
79126;SDS011;68528;48.814;8.904;2023-05-02T10:27:18;17.95;;;11.68;;
79126;SDS011;68528;48.814;8.904;2023-05-02T10:29:58;17.08;;;11.40;;
79126;SDS011;68528;48.814;8.904;2023-05-02T10:32:28;19.45;;;11.30;;
79126;SDS011;68528;48.814;8.904;2023-05-02T10:34:53;16.27;;;11.98;;
79126;SDS011;68528;48.814;8.904;2023-05-02T10:37:24;18.13;;;12.98;;
79126;SDS011;68528;48.814;8.904;2023-05-02T10:43:27;20.05;;;11.60;;
79126;SDS011;68528;48.814;8.904;2023-05-02T10:45:55;20.88;;;14.32;;
79126;SDS011;68528;48.814;8.904;2023-05-02T10:48:27;21.50;;;13.57;;
79126;SDS011;68528;48.814;8.904;2023-05-02T10:50:57;21.17;;;13.60;;
79126;SDS011;68528;48.814;8.904;2023-05-02T10:56:08;28.98;;;15.57;;
79126;SDS011;68528;48.814;8.904;2023-05-02T11:06:21;25.05;;;15.10;;
79126;SDS011;68528;48.814;8.904;2023-05-02T11:08:46;25.02;;;14.07;;
79126;SDS011;68528;48.814;8.904;2023-05-02T11:24:43;23.95;;;14.32;;
79126;SDS011;68528;48.814;8.904;2023-05-02T11:29:55;22.13;;;14.48;;
79126;SDS011;68528;48.814;8.904;2023-05-02T11:32:22;22.27;;;14.20;;
79126;SDS011;68528;48.814;8.904;2023-05-02T11:34:49;22.52;;;13.65;;
79126;SDS011;68528;48.814;8.904;2023-05-02T11:37:19;22.45;;;15.98;;
79126;SDS011;68528;48.814;8.904;2023-05-02T11:39:45;34.15;;;16.15;;
79126;SDS011;68528;48.814;8.904;2023-05-02T11:42:29;21.85;;;14.20;;
79126;SDS011;68528;48.814;8.904;2023-05-02T11:44:56;23.02;;;13.48;;
79126;SDS011;68528;48.814;8.904;2023-05-02T11:47:24;22.05;;;13.98;;
79126;SDS011;68528;48.814;8.904;2023-05-02T11:49:53;24.08;;;14.88;;
79126;SDS011;68528;48.814;8.904;2023-05-02T11:52:21;22.50;;;14.10;;
79126;SDS011;68528;48.814;8.904;2023-05-02T11:54:48;22.83;;;13.38;;
79126;SDS011;68528;48.814;8.904;2023-05-02T11:57:17;27.00;;;15.40;;
79126;SDS011;68528;48.814;8.904;2023-05-02T12:02:18;21.55;;;14.00;;
79126;SDS011;68528;48.814;8.904;2023-05-02T12:04:45;20.55;;;13.35;;
79126;SDS011;68528;48.814;8.904;2023-05-02T12:07:10;22.48;;;13.70;;
79126;SDS011;68528;48.814;8.904;2023-05-02T12:09:48;24.73;;;15.40;;
79126;SDS011;68528;48.814;8.904;2023-05-02T12:12:19;25.48;;;15.18;;
79126;SDS011;68528;48.814;8.904;2023-05-02T12:14:45;29.95;;;16.85;;
79126;SDS011;68528;48.814;8.904;2023-05-02T12:17:11;24.33;;;15.05;;
79126;SDS011;68528;48.814;8.904;2023-05-02T12:19:39;24.15;;;15.43;;
79126;SDS011;68528;48.814;8.904;2023-05-02T12:22:04;24.20;;;14.95;;
79126;SDS011;68528;48.814;8.904;2023-05-02T12:24:32;23.10;;;14.93;;
79126;SDS011;68528;48.814;8.904;2023-05-02T12:27:10;25.25;;;15.10;;
79126;SDS011;68528;48.814;8.904;2023-05-02T12:29:41;28.27;;;16.40;;
79126;SDS011;68528;48.814;8.904;2023-05-02T12:32:08;28.05;;;15.82;;
79126;SDS011;68528;48.814;8.904;2023-05-02T12:34:36;23.70;;;15.30;;
79126;SDS011;68528;48.814;8.904;2023-05-02T12:37:02;21.63;;;15.18;;
79126;SDS011;68528;48.814;8.904;2023-05-02T12:42:13;24.63;;;15.18;;
79126;SDS011;68528;48.814;8.904;2023-05-02T12:44:44;23.05;;;14.27;;
79126;SDS011;68528;48.814;8.904;2023-05-02T12:47:11;24.75;;;14.57;;
79126;SDS011;68528;48.814;8.904;2023-05-02T12:49:48;22.67;;;14.70;;
79126;SDS011;68528;48.814;8.904;2023-05-02T12:52:18;25.15;;;15.38;;
79126;SDS011;68528;48.814;8.904;2023-05-02T12:55:18;20.70;;;13.93;;
79126;SDS011;68528;48.814;8.904;2023-05-02T12:57:47;18.02;;;11.77;;
79126;SDS011;68528;48.814;8.904;2023-05-02T13:00:15;22.50;;;12.55;;
79126;SDS011;68528;48.814;8.904;2023-05-02T13:02:41;20.73;;;12.63;;
79126;SDS011;68528;48.814;8.904;2023-05-02T13:05:13;18.38;;;10.23;;
79126;SDS011;68528;48.814;8.904;2023-05-02T13:07:39;17.63;;;10.43;;
79126;SDS011;68528;48.814;8.904;2023-05-02T13:10:26;15.40;;;10.13;;
79126;SDS011;68528;48.814;8.904;2023-05-02T13:19:27;23.70;;;13.30;;
79126;SDS011;68528;48.814;8.904;2023-05-02T13:21:55;21.40;;;12.45;;
79126;SDS011;68528;48.814;8.904;2023-05-02T13:24:20;22.02;;;13.38;;
79126;SDS011;68528;48.814;8.904;2023-05-02T13:27:11;21.13;;;12.80;;
79126;SDS011;68528;48.814;8.904;2023-05-02T13:30:06;23.15;;;13.23;;
79126;SDS011;68528;48.814;8.904;2023-05-02T13:32:32;22.88;;;12.48;;
79126;SDS011;68528;48.814;8.904;2023-05-02T13:34:58;18.35;;;12.32;;
79126;SDS011;68528;48.814;8.904;2023-05-02T13:37:23;21.43;;;11.20;;
79126;SDS011;68528;48.814;8.904;2023-05-02T13:39:50;20.70;;;10.20;;
79126;SDS011;68528;48.814;8.904;2023-05-02T13:45:03;20.98;;;13.10;;
79126;SDS011;68528;48.814;8.904;2023-05-02T13:47:30;14.57;;;9.02;;
79126;SDS011;68528;48.814;8.904;2023-05-02T13:49:55;16.70;;;9.40;;
79126;SDS011;68528;48.814;8.904;2023-05-02T13:52:21;13.45;;;8.57;;
79126;SDS011;68528;48.814;8.904;2023-05-02T13:54:46;14.10;;;9.05;;
79126;SDS011;68528;48.814;8.904;2023-05-02T13:57:13;14.38;;;8.63;;
79126;SDS011;68528;48.814;8.904;2023-05-02T13:59:39;16.35;;;8.38;;
79126;SDS011;68528;48.814;8.904;2023-05-02T14:02:04;18.23;;;10.35;;
79126;SDS011;68528;48.814;8.904;2023-05-02T14:04:30;19.90;;;10.00;;
79126;SDS011;68528;48.814;8.904;2023-05-02T14:07:18;19.35;;;10.90;;
79126;SDS011;68528;48.814;8.904;2023-05-02T14:09:45;19.42;;;10.45;;
79126;SDS011;68528;48.814;8.904;2023-05-02T14:12:10;16.75;;;10.60;;
79126;SDS011;68528;48.814;8.904;2023-05-02T14:14:35;16.58;;;9.48;;
79126;SDS011;68528;48.814;8.904;2023-05-02T14:17:02;14.98;;;9.07;;
79126;SDS011;68528;48.814;8.904;2023-05-02T14:19:27;17.77;;;9.38;;
79126;SDS011;68528;48.814;8.904;2023-05-02T14:21:53;17.60;;;9.15;;
79126;SDS011;68528;48.814;8.904;2023-05-02T14:24:42;17.45;;;9.95;;
79126;SDS011;68528;48.814;8.904;2023-05-02T14:27:32;29.60;;;10.23;;
79126;SDS011;68528;48.814;8.904;2023-05-02T14:29:58;18.60;;;9.05;;
79126;SDS011;68528;48.814;8.904;2023-05-02T14:32:23;16.40;;;8.32;;
79126;SDS011;68528;48.814;8.904;2023-05-02T14:34:53;14.30;;;7.10;;
79126;SDS011;68528;48.814;8.904;2023-05-02T14:37:31;13.75;;;7.80;;
79126;SDS011;68528;48.814;8.904;2023-05-02T16:01:12;6.60;;;2.80;;
79126;SDS011;68528;48.814;8.904;2023-05-02T16:03:38;7.28;;;2.80;;
79126;SDS011;68528;48.814;8.904;2023-05-02T16:06:12;5.45;;;2.70;;
79126;SDS011;68528;48.814;8.904;2023-05-02T17:24:44;6.25;;;2.42;;
